Time;durP1;ratioP1;P1;durP2;ratioP2;P2;SDS_P1;SDS_P2;PMS_P1;PMS_P2;Temp;Humidity;BMP_temperature;BMP_pressure;BME280_temperature;BME280_humidity;BME280_pressure;Samples;Min_cycle;Max_cycle;Signal;HPM_P1;HPM_P2
2021/11/03 00:00:09;;;;;;;;;;;22.10;42.60;;;;;;705105;28;917;-82
2021/11/03 00:00:30;;;;;;;;;;;22.10;42.60;;;;;;704978;28;790;-82
2021/11/03 00:00:51;;;;;;;;;;;22.10;42.60;;;;;;704890;28;854;-81
2021/11/03 00:01:15;;;;;;;;;;;22.10;42.50;;;;;;704781;28;818;-82
2021/11/03 00:01:36;;;;;;;;;;;22.10;42.50;;;;;;705009;28;787;-82
2021/11/03 00:01:57;;;;;;;;;;;22.10;42.50;;;;;;704827;28;890;-81
2021/11/03 00:02:18;;;;;;;;;;;22.10;42.50;;;;;;705045;28;794;-83
2021/11/03 00:02:38;;;;;;;;;;;22.10;42.60;;;;;;704714;28;1010;-82
2021/11/03 00:03:01;;;;;;;;;;;22.10;42.60;;;;;;704962;28;786;-80
2021/11/03 00:03:22;;;;;;;;;;;22.10;42.60;;;;;;704883;28;786;-80
2021/11/03 00:03:43;;;;;;;;;;;22.10;42.60;;;;;;704921;28;746;-83
2021/11/03 00:04:04;;;;;;;;;;;22.10;42.50;;;;;;705065;28;786;-84
2021/11/03 00:04:25;;;;;;;;;;;22.10;42.60;;;;;;706886;27;1526;-82
2021/11/03 00:04:45;;;;;;;;;;;22.10;42.50;;;;;;707713;27;913;-79
2021/11/03 00:05:06;;;;;;;;;;;22.10;42.70;;;;;;707681;27;849;-82
2021/11/03 00:05:27;;;;;;;;;;;22.10;42.60;;;;;;707752;27;877;-82
2021/11/03 00:05:48;;;;;;;;;;;22.10;42.50;;;;;;707758;27;790;-81
2021/11/03 00:06:09;;;;;;;;;;;22.10;42.60;;;;;;707842;27;833;-83
2021/11/03 00:06:29;;;;;;;;;;;22.10;42.50;;;;;;707705;27;865;-82
2021/11/03 00:06:50;;;;;;;;;;;22.20;42.60;;;;;;707643;27;957;-81
2021/11/03 00:07:11;;;;;;;;;;;22.10;42.60;;;;;;707802;27;802;-85
2021/11/03 00:07:31;;;;;;;;;;;22.20;42.50;;;;;;707655;27;860;-82
2021/11/03 00:07:52;;;;;;;;;;;22.20;42.40;;;;;;707705;27;868;-81
2021/11/03 00:08:13;;;;;;;;;;;22.20;42.30;;;;;;707879;27;794;-83
2021/11/03 00:08:34;;;;;;;;;;;22.20;42.50;;;;;;707794;27;857;-83
2021/11/03 00:08:56;;;;;;;;;;;22.20;42.50;;;;;;707759;27;897;-81
2021/11/03 00:09:17;;;;;;;;;;;22.20;42.30;;;;;;707787;27;884;-81
2021/11/03 00:09:38;;;;;;;;;;;22.20;42.30;;;;;;707757;27;845;-83
2021/11/03 00:09:59;;;;;;;;;;;22.20;42.30;;;;;;707735;27;884;-82
2021/11/03 00:10:20;;;;;;;;;;;22.20;42.30;;;;;;707818;27;793;-82
2021/11/03 00:10:42;;;;;;;;;;;22.20;42.30;;;;;;707715;27;912;-82
2021/11/03 00:11:03;;;;;;;;;;;22.20;42.20;;;;;;707651;27;849;-82
2021/11/03 00:11:24;;;;;;;;;;;22.20;42.20;;;;;;707819;27;905;-83
2021/11/03 00:11:44;;;;;;;;;;;22.20;42.20;;;;;;707537;27;809;-82
2021/11/03 00:12:07;;;;;;;;;;;22.20;42.20;;;;;;707884;27;896;-83
2021/11/03 00:12:27;;;;;;;;;;;22.20;42.20;;;;;;707812;27;841;-80
2021/11/03 00:12:48;;;;;;;;;;;22.10;42.10;;;;;;707715;27;715;-82
2021/11/03 00:13:12;;;;;;;;;;;22.10;42.10;;;;;;707596;27;1412;-83
2021/11/03 00:13:33;;;;;;;;;;;22.10;42.20;;;;;;707792;27;860;-81
2021/11/03 00:13:53;;;;;;;;;;;22.10;42.20;;;;;;707609;27;818;-81
2021/11/03 00:14:14;;;;;;;;;;;22.10;42.20;;;;;;707862;27;813;-82
2021/11/03 00:14:35;;;;;;;;;;;22.10;42.30;;;;;;707829;27;813;-83
2021/11/03 00:14:55;;;;;;;;;;;22.10;42.40;;;;;;707785;27;895;-81
2021/11/03 00:15:19;;;;;;;;;;;22.10;43.50;;;;;;707760;27;892;-79
2021/11/03 00:15:40;;;;;;;;;;;22.00;42.30;;;;;;707784;27;818;-83
2021/11/03 00:16:00;;;;;;;;;;;22.10;42.30;;;;;;707572;27;805;-78
2021/11/03 00:16:21;;;;;;;;;;;22.10;43.50;;;;;;707789;27;916;-83
2021/11/03 00:16:41;;;;;;;;;;;22.10;42.30;;;;;;707662;27;906;-81
2021/11/03 00:17:02;;;;;;;;;;;22.10;42.30;;;;;;707678;27;802;-82
2021/11/03 00:17:23;;;;;;;;;;;22.00;42.30;;;;;;707063;27;908;-84
2021/11/03 00:17:43;;;;;;;;;;;22.00;42.30;;;;;;707751;27;817;-81
2021/11/03 00:18:04;;;;;;;;;;;22.00;42.40;;;;;;707612;27;1905;-82
2021/11/03 00:18:25;;;;;;;;;;;22.00;42.30;;;;;;707729;27;889;-83
2021/11/03 00:18:45;;;;;;;;;;;22.00;42.30;;;;;;707755;27;897;-80
2021/11/03 00:19:09;;;;;;;;;;;22.00;42.30;;;;;;707711;27;830;-81
2021/11/03 00:19:29;;;;;;;;;;;22.00;42.30;;;;;;707798;27;853;-80
2021/11/03 00:19:50;;;;;;;;;;;22.00;42.30;;;;;;707595;27;865;-82
2021/11/03 00:20:12;;;;;;;;;;;22.00;42.50;;;;;;707770;27;782;-83
2021/11/03 00:20:33;;;;;;;;;;;22.00;42.40;;;;;;707792;27;778;-83
2021/11/03 00:20:55;;;;;;;;;;;22.00;42.40;;;;;;707734;27;841;-83
2021/11/03 00:21:16;;;;;;;;;;;22.00;42.30;;;;;;707851;27;773;-83
2021/11/03 00:21:37;;;;;;;;;;;22.00;42.40;;;;;;704609;28;1345;-82
2021/11/03 00:21:57;;;;;;;;;;;22.00;42.30;;;;;;704538;28;897;-82
2021/11/03 00:22:18;;;;;;;;;;;22.00;42.30;;;;;;704656;28;861;-82
2021/11/03 00:22:39;;;;;;;;;;;22.10;42.40;;;;;;704805;28;814;-82
2021/11/03 00:23:00;;;;;;;;;;;22.00;42.30;;;;;;704720;28;861;-81
2021/11/03 00:23:20;;;;;;;;;;;22.00;42.40;;;;;;705213;27;873;-81
2021/11/03 00:23:41;;;;;;;;;;;22.00;43.30;;;;;;707669;27;909;-83
2021/11/03 00:24:05;;;;;;;;;;;22.00;42.90;;;;;;707750;27;928;-83
2021/11/03 00:24:25;;;;;;;;;;;22.10;42.50;;;;;;707560;27;893;-83
2021/11/03 00:24:46;;;;;;;;;;;22.10;42.30;;;;;;707672;27;877;-81
2021/11/03 00:25:07;;;;;;;;;;;22.10;42.20;;;;;;707568;27;901;-83
2021/11/03 00:25:27;;;;;;;;;;;22.10;42.10;;;;;;707797;27;829;-83
2021/11/03 00:25:48;;;;;;;;;;;22.10;42.10;;;;;;707607;27;948;-83
2021/11/03 00:26:09;;;;;;;;;;;22.10;42.10;;;;;;707704;27;902;-85
2021/11/03 00:26:29;;;;;;;;;;;22.10;42.20;;;;;;707611;27;829;-84
2021/11/03 00:26:50;;;;;;;;;;;22.10;42.80;;;;;;707753;27;921;-81
2021/11/03 00:27:11;;;;;;;;;;;22.10;43.20;;;;;;707646;27;936;-82
2021/11/03 00:27:32;;;;;;;;;;;22.10;42.50;;;;;;707734;27;881;-80
2021/11/03 00:27:52;;;;;;;;;;;22.10;42.80;;;;;;707614;27;872;-80
2021/11/03 00:28:14;;;;;;;;;;;22.10;42.90;;;;;;707820;27;905;-84
2021/11/03 00:28:35;;;;;;;;;;;22.20;42.90;;;;;;707504;27;1169;-80
2021/11/03 00:28:59;;;;;;;;;;;22.20;42.60;;;;;;704756;28;1240;-80
2021/11/03 00:29:19;;;;;;;;;;;22.20;42.20;;;;;;704822;28;988;-81
2021/11/03 00:29:40;;;;;;;;;;;22.20;42.70;;;;;;704926;28;858;-78
2021/11/03 00:30:01;;;;;;;;;;;22.20;42.20;;;;;;701346;28;889;-83
2021/11/03 00:30:21;;;;;;;;;;;22.30;42.40;;;;;;701901;28;885;-82
2021/11/03 00:30:43;;;;;;;;;;;22.30;42.60;;;;;;701811;28;793;-83
2021/11/03 00:31:04;;;;;;;;;;;22.30;42.70;;;;;;701692;28;901;-83
2021/11/03 00:31:25;;;;;;;;;;;22.30;42.50;;;;;;701945;28;777;-84
2021/11/03 00:31:45;;;;;;;;;;;22.30;42.50;;;;;;702447;28;932;-84
2021/11/03 00:32:07;;;;;;;;;;;22.30;42.10;;;;;;704933;28;849;-81
2021/11/03 00:32:27;;;;;;;;;;;22.30;41.80;;;;;;704817;28;1315;-83
2021/11/03 00:32:48;;;;;;;;;;;22.30;41.90;;;;;;704508;28;1093;-82
2021/11/03 00:33:09;;;;;;;;;;;22.30;41.70;;;;;;704753;28;936;-84
2021/11/03 00:33:32;;;;;;;;;;;22.30;41.60;;;;;;704910;28;884;-82
2021/11/03 00:33:53;;;;;;;;;;;22.30;41.50;;;;;;704793;28;997;-79
2021/11/03 00:34:13;;;;;;;;;;;22.30;41.50;;;;;;704884;28;904;-83
2021/11/03 00:34:34;;;;;;;;;;;22.20;41.50;;;;;;704923;28;853;-83
2021/11/03 00:34:54;;;;;;;;;;;22.30;41.60;;;;;;704784;28;837;-83
2021/11/03 00:35:15;;;;;;;;;;;22.30;41.70;;;;;;704768;28;944;-81
2021/11/03 00:35:36;;;;;;;;;;;22.20;42.20;;;;;;704833;28;936;-82
2021/11/03 00:36:08;;;;;;;;;;;22.20;42.40;;;;;;703445;28;1429;-82
2021/11/03 00:36:29;;;;;;;;;;;22.30;42.10;;;;;;702079;28;888;-80
2021/11/03 00:36:49;;;;;;;;;;;22.30;41.60;;;;;;701699;28;957;-84
2021/11/03 00:37:10;;;;;;;;;;;22.30;41.90;;;;;;701973;28;836;-82
2021/11/03 00:37:31;;;;;;;;;;;22.30;41.60;;;;;;702008;28;1200;-81
2021/11/03 00:37:51;;;;;;;;;;;22.30;41.80;;;;;;701902;28;1915;-83
2021/11/03 00:38:12;;;;;;;;;;;22.20;41.60;;;;;;702023;28;920;-83
2021/11/03 00:38:33;;;;;;;;;;;22.30;41.60;;;;;;702036;28;810;-83
2021/11/03 00:38:53;;;;;;;;;;;22.30;41.60;;;;;;701968;28;956;-82
2021/11/03 00:39:14;;;;;;;;;;;22.30;41.50;;;;;;701869;28;948;-82
2021/11/03 00:39:34;;;;;;;;;;;22.30;41.50;;;;;;702086;28;872;-83
2021/11/03 00:39:55;;;;;;;;;;;22.30;41.50;;;;;;701935;28;969;-82
2021/11/03 00:40:16;;;;;;;;;;;22.30;41.40;;;;;;702141;28;820;-84
2021/11/03 00:40:36;;;;;;;;;;;22.30;41.40;;;;;;702012;28;896;-83
2021/11/03 00:40:57;;;;;;;;;;;22.20;41.30;;;;;;701939;28;857;-82
2021/11/03 00:41:18;;;;;;;;;;;22.20;41.30;;;;;;702004;28;963;-84
2021/11/03 00:41:38;;;;;;;;;;;22.30;41.50;;;;;;702108;28;510;-83
2021/11/03 00:41:59;;;;;;;;;;;22.30;41.40;;;;;;703366;28;1102;-83
2021/11/03 00:42:20;;;;;;;;;;;22.20;41.30;;;;;;704870;28;813;-82
2021/11/03 00:42:40;;;;;;;;;;;22.20;41.30;;;;;;704899;28;872;-83
2021/11/03 00:43:01;;;;;;;;;;;22.20;41.50;;;;;;704761;28;932;-81
2021/11/03 00:43:22;;;;;;;;;;;22.20;41.30;;;;;;704815;28;801;-80
2021/11/03 00:43:42;;;;;;;;;;;22.20;41.40;;;;;;704822;28;909;-81
2021/11/03 00:44:03;;;;;;;;;;;22.20;41.50;;;;;;704868;27;1295;-81
2021/11/03 00:44:24;;;;;;;;;;;22.20;41.40;;;;;;704858;27;1197;-82
2021/11/03 00:44:45;;;;;;;;;;;22.20;41.40;;;;;;704813;28;971;-82
2021/11/03 00:45:06;;;;;;;;;;;22.20;41.50;;;;;;704797;28;782;-82
2021/11/03 00:45:27;;;;;;;;;;;22.20;41.60;;;;;;704907;28;782;-84
2021/11/03 00:45:48;;;;;;;;;;;22.20;41.60;;;;;;704786;28;901;-82
2021/11/03 00:46:08;;;;;;;;;;;22.20;41.60;;;;;;704872;28;869;-83
2021/11/03 00:46:29;;;;;;;;;;;22.20;41.60;;;;;;704807;28;866;-82
2021/11/03 00:46:50;;;;;;;;;;;22.20;42.00;;;;;;704881;28;921;-86
2021/11/03 00:47:10;;;;;;;;;;;22.20;42.30;;;;;;704730;28;922;-84
2021/11/03 00:47:31;;;;;;;;;;;22.30;41.90;;;;;;704815;28;829;-82
2021/11/03 00:47:52;;;;;;;;;;;22.20;41.50;;;;;;704733;28;948;-82
2021/11/03 00:48:17;;;;;;;;;;;22.20;41.40;;;;;;704986;28;817;-83
2021/11/03 00:48:37;;;;;;;;;;;22.20;41.50;;;;;;698670;28;967;-82
2021/11/03 00:49:01;;;;;;;;;;;22.20;41.30;;;;;;698990;28;873;-79
2021/11/03 00:49:21;;;;;;;;;;;22.20;41.30;;;;;;696422;28;821;-84
2021/11/03 00:49:42;;;;;;;;;;;22.20;41.30;;;;;;696218;28;941;-84
2021/11/03 00:50:03;;;;;;;;;;;22.20;41.50;;;;;;696084;28;1495;-80
2021/11/03 00:50:24;;;;;;;;;;;22.20;41.80;;;;;;698182;28;933;-82
2021/11/03 00:50:45;;;;;;;;;;;22.20;41.50;;;;;;701930;28;908;-81
2021/11/03 00:51:07;;;;;;;;;;;22.20;41.70;;;;;;702759;28;849;-83
2021/11/03 00:51:29;;;;;;;;;;;22.20;41.90;;;;;;701682;28;826;-85
2021/11/03 00:51:50;;;;;;;;;;;22.20;42.00;;;;;;701525;28;802;-81
2021/11/03 00:52:10;;;;;;;;;;;22.30;42.10;;;;;;701845;28;901;-83
2021/11/03 00:52:31;;;;;;;;;;;22.30;41.50;;;;;;701808;28;821;-79
2021/11/03 00:52:52;;;;;;;;;;;22.20;41.30;;;;;;701828;28;770;-83
2021/11/03 00:53:12;;;;;;;;;;;22.30;41.20;;;;;;702174;28;826;-84
2021/11/03 00:53:33;;;;;;;;;;;22.30;41.10;;;;;;704746;28;936;-84
2021/11/03 00:53:54;;;;;;;;;;;22.30;41.20;;;;;;704639;28;770;-83
2021/11/03 00:54:14;;;;;;;;;;;22.30;41.30;;;;;;704789;28;889;-83
2021/11/03 00:54:35;;;;;;;;;;;22.30;41.40;;;;;;704744;28;858;-84
2021/11/03 00:54:56;;;;;;;;;;;22.30;41.60;;;;;;704851;28;944;-86
2021/11/03 00:55:17;;;;;;;;;;;22.30;41.30;;;;;;704653;28;1340;-84
2021/11/03 00:55:37;;;;;;;;;;;22.30;41.30;;;;;;704111;28;990;-83
2021/11/03 00:55:58;;;;;;;;;;;22.30;41.30;;;;;;704643;28;912;-82
2021/11/03 00:56:18;;;;;;;;;;;22.30;41.30;;;;;;704912;28;845;-82
2021/11/03 00:56:39;;;;;;;;;;;22.30;41.70;;;;;;704787;28;947;-83
2021/11/03 00:56:59;;;;;;;;;;;22.30;41.80;;;;;;704720;28;810;-81
2021/11/03 00:57:20;;;;;;;;;;;22.30;42.30;;;;;;704978;28;1271;-83
2021/11/03 00:57:40;;;;;;;;;;;22.30;42.40;;;;;;706605;27;1244;-82
2021/11/03 00:58:01;;;;;;;;;;;22.30;42.50;;;;;;706417;27;1901;-81
2021/11/03 00:58:21;;;;;;;;;;;22.30;41.50;;;;;;704734;28;976;-82
2021/11/03 00:58:42;;;;;;;;;;;22.30;41.30;;;;;;704919;28;872;-83
2021/11/03 00:59:02;;;;;;;;;;;22.30;41.30;;;;;;704653;28;1020;-82
2021/11/03 00:59:23;;;;;;;;;;;22.30;41.40;;;;;;705626;28;1208;-83
2021/11/03 00:59:44;;;;;;;;;;;22.30;41.20;;;;;;707594;27;847;-83
2021/11/03 01:00:05;;;;;;;;;;;22.30;42.30;;;;;;707518;27;936;-81
2021/11/03 01:00:26;;;;;;;;;;;22.30;41.20;;;;;;707609;27;1122;-82
2021/11/03 01:00:47;;;;;;;;;;;22.30;41.10;;;;;;707593;27;843;-82
2021/11/03 01:01:08;;;;;;;;;;;22.30;41.10;;;;;;707557;27;861;-81
2021/11/03 01:01:29;;;;;;;;;;;22.30;41.10;;;;;;707667;27;893;-85
2021/11/03 01:01:50;;;;;;;;;;;22.30;41.60;;;;;;707576;27;880;-85
2021/11/03 01:02:10;;;;;;;;;;;22.30;41.40;;;;;;707611;27;1080;-83
2021/11/03 01:02:31;;;;;;;;;;;22.30;41.30;;;;;;706997;27;997;-80
2021/11/03 01:02:51;;;;;;;;;;;22.30;41.30;;;;;;702132;28;861;-83
2021/11/03 01:03:12;;;;;;;;;;;22.30;42.40;;;;;;701867;28;794;-79
2021/11/03 01:03:32;;;;;;;;;;;22.30;41.80;;;;;;701624;28;984;-78
2021/11/03 01:03:53;;;;;;;;;;;22.30;41.30;;;;;;701812;28;869;-80
2021/11/03 01:04:14;;;;;;;;;;;22.30;41.20;;;;;;701975;28;857;-82
2021/11/03 01:04:34;;;;;;;;;;;22.30;41.10;;;;;;701988;28;794;-82
2021/11/03 01:04:55;;;;;;;;;;;22.30;41.10;;;;;;701938;28;944;-77
2021/11/03 01:05:18;;;;;;;;;;;22.30;41.10;;;;;;701967;28;798;-80
2021/11/03 01:05:38;;;;;;;;;;;22.30;41.90;;;;;;702032;28;839;-80
2021/11/03 01:05:59;;;;;;;;;;;22.30;41.80;;;;;;701921;28;857;-81
2021/11/03 01:06:19;;;;;;;;;;;22.30;41.30;;;;;;703799;27;1197;-82
2021/11/03 01:06:40;;;;;;;;;;;22.30;41.90;;;;;;704767;28;798;-82
2021/11/03 01:07:01;;;;;;;;;;;22.30;42.20;;;;;;704657;28;981;-83
2021/11/03 01:07:21;;;;;;;;;;;22.30;42.40;;;;;;704818;28;853;-81
2021/11/03 01:07:42;;;;;;;;;;;22.30;41.50;;;;;;704762;28;797;-83
2021/11/03 01:08:03;;;;;;;;;;;22.30;41.30;;;;;;704807;28;943;-79
2021/11/03 01:08:23;;;;;;;;;;;22.40;41.50;;;;;;704703;28;810;-83
2021/11/03 01:08:44;;;;;;;;;;;22.40;42.00;;;;;;704760;28;964;-83
2021/11/03 01:09:06;;;;;;;;;;;22.40;41.60;;;;;;704742;28;929;-81
2021/11/03 01:09:27;;;;;;;;;;;22.40;41.30;;;;;;704750;28;921;-82
2021/11/03 01:09:48;;;;;;;;;;;22.30;42.00;;;;;;704761;28;861;-83
2021/11/03 01:10:09;;;;;;;;;;;22.40;41.90;;;;;;706100;27;1236;-80
2021/11/03 01:10:30;;;;;;;;;;;22.40;41.90;;;;;;705141;28;813;-84
2021/11/03 01:10:52;;;;;;;;;;;22.40;41.30;;;;;;706001;28;794;-84
2021/11/03 01:11:13;;;;;;;;;;;22.30;41.10;;;;;;705235;28;1019;-80
2021/11/03 01:11:34;;;;;;;;;;;22.30;42.50;;;;;;704839;28;770;-82
2021/11/03 01:11:55;;;;;;;;;;;22.30;41.70;;;;;;706000;28;1076;-85
2021/11/03 01:12:15;;;;;;;;;;;22.30;41.30;;;;;;705252;28;793;-80
2021/11/03 01:12:36;;;;;;;;;;;22.40;41.20;;;;;;704646;28;846;-81
2021/11/03 01:12:57;;;;;;;;;;;22.30;41.10;;;;;;704780;28;857;-81
2021/11/03 01:13:18;;;;;;;;;;;22.30;41.10;;;;;;704724;28;1184;-83
2021/11/03 01:13:39;;;;;;;;;;;22.30;41.10;;;;;;705556;28;858;-81
2021/11/03 01:13:59;;;;;;;;;;;22.20;41.20;;;;;;705023;28;1370;-82
2021/11/03 01:14:21;;;;;;;;;;;22.30;41.20;;;;;;705266;28;945;-86
2021/11/03 01:14:41;;;;;;;;;;;22.20;41.20;;;;;;705640;28;857;-79
2021/11/03 01:15:03;;;;;;;;;;;22.20;41.20;;;;;;704821;28;881;-78
2021/11/03 01:15:24;;;;;;;;;;;22.20;41.20;;;;;;704842;28;944;-78
2021/11/03 01:15:46;;;;;;;;;;;22.20;41.50;;;;;;704726;28;869;-80
2021/11/03 01:16:06;;;;;;;;;;;22.20;41.60;;;;;;704896;28;905;-76
2021/11/03 01:16:27;;;;;;;;;;;22.20;41.50;;;;;;704836;28;873;-80
2021/11/03 01:16:47;;;;;;;;;;;22.10;41.50;;;;;;705010;28;902;-86
2021/11/03 01:17:08;;;;;;;;;;;22.20;41.50;;;;;;705083;28;1491;-84
2021/11/03 01:17:28;;;;;;;;;;;22.20;41.60;;;;;;705568;28;813;-85
2021/11/03 01:17:49;;;;;;;;;;;22.10;41.60;;;;;;702512;28;1202;-84
2021/11/03 01:18:09;;;;;;;;;;;22.10;41.60;;;;;;702011;28;1918;-82
2021/11/03 01:18:31;;;;;;;;;;;22.10;41.70;;;;;;702448;28;1028;-82
2021/11/03 01:18:57;;;;;;;;;;;22.10;41.70;;;;;;702695;28;1401;-79
2021/11/03 01:19:17;;;;;;;;;;;22.10;41.70;;;;;;699360;28;1162;-84
2021/11/03 01:19:38;;;;;;;;;;;22.10;41.70;;;;;;700840;28;850;-78
2021/11/03 01:19:58;;;;;;;;;;;22.10;42.40;;;;;;702114;28;810;-84
2021/11/03 01:20:19;;;;;;;;;;;22.10;41.80;;;;;;702081;28;1098;-81
2021/11/03 01:20:41;;;;;;;;;;;22.10;41.90;;;;;;701787;28;944;-80
2021/11/03 01:21:02;;;;;;;;;;;22.10;42.20;;;;;;701931;28;963;-83
2021/11/03 01:21:23;;;;;;;;;;;22.10;42.40;;;;;;704832;28;901;-80
2021/11/03 01:21:44;;;;;;;;;;;22.20;42.20;;;;;;704739;28;860;-81
2021/11/03 01:22:05;;;;;;;;;;;22.10;42.40;;;;;;704621;28;817;-83
2021/11/03 01:22:26;;;;;;;;;;;22.20;42.30;;;;;;704789;28;833;-81
2021/11/03 01:22:46;;;;;;;;;;;22.20;42.30;;;;;;704844;28;928;-81
2021/11/03 01:23:09;;;;;;;;;;;22.20;42.40;;;;;;704467;28;888;-82
2021/11/03 01:23:30;;;;;;;;;;;22.10;42.40;;;;;;704740;28;918;-82
2021/11/03 01:23:51;;;;;;;;;;;22.10;42.40;;;;;;704675;28;897;-83
2021/11/03 01:24:12;;;;;;;;;;;22.10;42.60;;;;;;704829;28;888;-83
2021/11/03 01:24:32;;;;;;;;;;;22.10;42.40;;;;;;704758;28;952;-82
2021/11/03 01:24:53;;;;;;;;;;;22.10;42.40;;;;;;704822;28;782;-82
2021/11/03 01:25:14;;;;;;;;;;;22.10;42.40;;;;;;704498;28;892;-83
2021/11/03 01:25:35;;;;;;;;;;;22.10;42.40;;;;;;704729;28;928;-81
2021/11/03 01:25:58;;;;;;;;;;;22.10;42.40;;;;;;704669;28;849;-82
2021/11/03 01:26:18;;;;;;;;;;;22.10;42.40;;;;;;704769;28;892;-82
2021/11/03 01:26:39;;;;;;;;;;;22.10;42.30;;;;;;704856;28;857;-82
2021/11/03 01:26:59;;;;;;;;;;;22.10;42.30;;;;;;704711;28;964;-82
2021/11/03 01:27:20;;;;;;;;;;;22.10;42.30;;;;;;704687;28;821;-82
2021/11/03 01:27:41;;;;;;;;;;;22.10;42.30;;;;;;704673;28;1408;-80
2021/11/03 01:28:02;;;;;;;;;;;22.10;42.30;;;;;;704800;28;853;-80
2021/11/03 01:28:24;;;;;;;;;;;22.10;42.30;;;;;;704785;28;837;-83
2021/11/03 01:28:45;;;;;;;;;;;22.10;42.30;;;;;;705235;28;892;-88
2021/11/03 01:29:06;;;;;;;;;;;22.10;42.30;;;;;;704392;28;1456;-86
2021/11/03 01:29:26;;;;;;;;;;;22.10;42.30;;;;;;703622;28;1447;-79
2021/11/03 01:29:49;;;;;;;;;;;22.10;42.30;;;;;;702068;28;897;-82
2021/11/03 01:30:11;;;;;;;;;;;22.00;42.20;;;;;;701948;28;933;-82
2021/11/03 01:30:32;;;;;;;;;;;22.00;42.20;;;;;;701985;28;802;-81
2021/11/03 01:30:53;;;;;;;;;;;22.00;42.30;;;;;;702034;28;790;-80
2021/11/03 01:31:13;;;;;;;;;;;22.00;42.30;;;;;;701847;28;783;-80
2021/11/03 01:31:35;;;;;;;;;;;22.00;42.30;;;;;;701822;28;861;-80
2021/11/03 01:31:55;;;;;;;;;;;22.00;42.40;;;;;;701770;28;968;-81
2021/11/03 01:32:16;;;;;;;;;;;22.00;42.30;;;;;;699024;28;993;-81
2021/11/03 01:32:36;;;;;;;;;;;22.00;42.40;;;;;;699651;28;987;-80
2021/11/03 01:32:57;;;;;;;;;;;22.00;42.30;;;;;;701710;28;885;-82
2021/11/03 01:33:18;;;;;;;;;;;22.00;42.30;;;;;;700914;28;1347;-80
2021/11/03 01:33:39;;;;;;;;;;;22.00;42.40;;;;;;698809;28;1128;-80
2021/11/03 01:34:00;;;;;;;;;;;22.00;42.40;;;;;;700797;28;1436;-81
2021/11/03 01:34:21;;;;;;;;;;;22.10;42.50;;;;;;701917;28;814;-81
2021/11/03 01:34:42;;;;;;;;;;;22.00;42.40;;;;;;702025;28;838;-82
2021/11/03 01:35:03;;;;;;;;;;;22.00;42.50;;;;;;701743;28;913;-79
2021/11/03 01:35:24;;;;;;;;;;;22.00;42.40;;;;;;704278;28;1282;-79
2021/11/03 01:35:45;;;;;;;;;;;22.00;42.40;;;;;;704647;28;822;-79
2021/11/03 01:36:06;;;;;;;;;;;22.00;42.60;;;;;;704747;28;798;-81
2021/11/03 01:36:26;;;;;;;;;;;22.00;42.50;;;;;;704745;28;852;-80
2021/11/03 01:36:47;;;;;;;;;;;22.10;42.60;;;;;;704585;28;1076;-82
2021/11/03 01:37:07;;;;;;;;;;;22.00;42.60;;;;;;704535;28;944;-80
2021/11/03 01:37:28;;;;;;;;;;;22.00;42.50;;;;;;704541;28;1127;-80
2021/11/03 01:37:50;;;;;;;;;;;22.00;42.40;;;;;;704629;28;987;-81
2021/11/03 01:38:11;;;;;;;;;;;22.00;42.60;;;;;;704572;28;1901;-81
2021/11/03 01:38:31;;;;;;;;;;;22.00;43.10;;;;;;704751;28;940;-79
2021/11/03 01:38:52;;;;;;;;;;;22.10;42.60;;;;;;704790;28;814;-80
2021/11/03 01:39:13;;;;;;;;;;;22.10;42.40;;;;;;704187;28;1371;-81
2021/11/03 01:39:33;;;;;;;;;;;22.10;42.40;;;;;;701940;28;857;-80
2021/11/03 01:39:54;;;;;;;;;;;22.10;42.40;;;;;;704512;28;1201;-81
2021/11/03 01:40:16;;;;;;;;;;;22.00;42.40;;;;;;704803;28;1168;-80
2021/11/03 01:40:40;;;;;;;;;;;22.10;42.60;;;;;;705738;28;1244;-80
2021/11/03 01:41:01;;;;;;;;;;;22.10;42.50;;;;;;704531;28;1874;-80
2021/11/03 01:41:22;;;;;;;;;;;22.10;42.50;;;;;;704806;28;813;-81
2021/11/03 01:41:43;;;;;;;;;;;22.10;42.40;;;;;;704684;28;983;-80
2021/11/03 01:42:03;;;;;;;;;;;22.10;42.40;;;;;;704529;28;825;-81
2021/11/03 01:42:24;;;;;;;;;;;22.10;42.50;;;;;;704732;28;869;-77
2021/11/03 01:42:45;;;;;;;;;;;22.10;42.50;;;;;;704822;28;833;-80
2021/11/03 01:43:06;;;;;;;;;;;22.10;42.40;;;;;;704605;28;794;-79
2021/11/03 01:43:47;;;;;;;;;;;22.10;42.40;;;;;;704665;28;944;-80
2021/11/03 01:44:10;;;;;;;;;;;22.10;42.40;;;;;;704515;28;882;-80
2021/11/03 01:44:30;;;;;;;;;;;22.10;42.40;;;;;;704662;28;900;-78
2021/11/03 01:44:51;;;;;;;;;;;22.10;42.40;;;;;;704776;28;805;-80
2021/11/03 01:45:13;;;;;;;;;;;22.10;42.40;;;;;;704550;28;925;-80
2021/11/03 01:45:34;;;;;;;;;;;22.10;42.30;;;;;;704838;28;774;-80
2021/11/03 01:46:13;;;;;;;;;;;22.10;42.40;;;;;;705875;28;1224;-80
2021/11/03 01:46:42;;;;;;;;;;;22.10;42.40;;;;;;707568;28;802;-80
2021/11/03 01:47:21;;;;;;;;;;;22.10;42.40;;;;;;707407;28;901;-80
2021/11/03 01:47:43;;;;;;;;;;;22.10;42.30;;;;;;704374;28;1216;-80
2021/11/03 01:48:05;;;;;;;;;;;22.10;42.50;;;;;;704566;28;861;-80
2021/11/03 01:48:26;;;;;;;;;;;22.10;43.20;;;;;;704407;28;830;-81
2021/11/03 01:48:47;;;;;;;;;;;22.10;43.10;;;;;;704543;28;904;-80
2021/11/03 01:49:18;;;;;;;;;;;22.10;42.90;;;;;;704396;28;849;-80
2021/11/03 01:49:39;;;;;;;;;;;22.10;42.50;;;;;;706970;28;970;-79
2021/11/03 01:50:02;;;;;;;;;;;22.10;42.40;;;;;;707482;28;790;-80
2021/11/03 01:50:32;;;;;;;;;;;22.10;42.30;;;;;;707345;28;881;-80
2021/11/03 01:50:56;;;;;;;;;;;22.10;42.30;;;;;;707636;28;908;-81
2021/11/03 01:51:21;;;;;;;;;;;22.10;42.10;;;;;;707502;28;880;-79
2021/11/03 01:51:47;;;;;;;;;;;22.10;42.20;;;;;;701927;28;960;-81
2021/11/03 01:52:11;;;;;;;;;;;22.10;42.40;;;;;;701959;28;809;-80
2021/11/03 01:52:32;;;;;;;;;;;22.10;42.40;;;;;;701606;28;933;-80
2021/11/03 01:53:06;;;;;;;;;;;22.10;42.30;;;;;;701918;28;895;-80
2021/11/03 01:53:28;;;;;;;;;;;22.10;42.20;;;;;;706181;28;955;-81
2021/11/03 01:53:49;;;;;;;;;;;22.10;42.40;;;;;;707446;28;901;-82
2021/11/03 01:54:12;;;;;;;;;;;22.10;42.40;;;;;;707492;28;857;-82
2021/11/03 01:54:44;;;;;;;;;;;22.10;42.20;;;;;;707347;28;774;-79
2021/11/03 01:55:05;;;;;;;;;;;22.10;42.10;;;;;;707409;28;891;-81
2021/11/03 01:55:25;;;;;;;;;;;22.10;42.10;;;;;;707509;28;877;-80
2021/11/03 01:55:49;;;;;;;;;;;22.10;42.20;;;;;;707531;28;786;-79
2021/11/03 01:56:10;;;;;;;;;;;22.10;42.30;;;;;;707575;28;872;-80
2021/11/03 01:56:31;;;;;;;;;;;22.10;42.30;;;;;;707455;28;802;-79
2021/11/03 01:56:52;;;;;;;;;;;22.10;42.20;;;;;;707429;28;837;-80
2021/11/03 01:57:17;;;;;;;;;;;22.10;42.30;;;;;;707438;28;925;-80
2021/11/03 01:57:48;;;;;;;;;;;22.10;42.30;;;;;;707527;28;939;-81
2021/11/03 01:58:11;;;;;;;;;;;22.10;42.30;;;;;;707402;28;1948;-81
2021/11/03 01:58:48;;;;;;;;;;;22.00;42.20;;;;;;707560;28;830;-82
2021/11/03 01:59:08;;;;;;;;;;;22.10;42.40;;;;;;707469;28;789;-81
2021/11/03 01:59:31;;;;;;;;;;;22.00;42.20;;;;;;707509;28;821;-81
2021/11/03 01:59:54;;;;;;;;;;;22.00;42.20;;;;;;707537;28;770;-81
2021/11/03 02:00:18;;;;;;;;;;;22.00;42.30;;;;;;707642;28;881;-81
2021/11/03 02:00:40;;;;;;;;;;;22.00;42.60;;;;;;707548;28;880;-82
2021/11/03 02:01:01;;;;;;;;;;;22.00;42.40;;;;;;706668;28;1531;-82
2021/11/03 02:01:21;;;;;;;;;;;22.00;42.30;;;;;;707507;28;817;-82
2021/11/03 02:01:42;;;;;;;;;;;22.00;42.40;;;;;;707578;28;798;-81
2021/11/03 02:02:06;;;;;;;;;;;22.00;42.40;;;;;;707467;28;861;-81
2021/11/03 02:02:27;;;;;;;;;;;22.00;42.30;;;;;;707440;28;948;-81
2021/11/03 02:02:48;;;;;;;;;;;22.00;42.50;;;;;;701615;28;985;-81
2021/11/03 02:03:10;;;;;;;;;;;22.10;42.30;;;;;;701614;28;794;-80
2021/11/03 02:03:31;;;;;;;;;;;22.10;43.50;;;;;;701674;28;857;-82
2021/11/03 02:03:52;;;;;;;;;;;22.10;42.40;;;;;;701675;28;774;-81
2021/11/03 02:04:12;;;;;;;;;;;22.10;42.50;;;;;;701737;28;782;-80
2021/11/03 02:04:33;;;;;;;;;;;22.10;42.30;;;;;;702247;28;1408;-80
2021/11/03 02:04:54;;;;;;;;;;;22.00;42.30;;;;;;704672;28;857;-81
2021/11/03 02:05:17;;;;;;;;;;;22.10;42.30;;;;;;704601;28;837;-81
2021/11/03 02:05:38;;;;;;;;;;;22.00;42.20;;;;;;704769;28;876;-81
2021/11/03 02:06:03;;;;;;;;;;;22.10;42.30;;;;;;704628;28;960;-81
2021/11/03 02:06:25;;;;;;;;;;;22.00;42.20;;;;;;704630;28;915;-81
2021/11/03 02:06:45;;;;;;;;;;;22.00;42.40;;;;;;704629;28;953;-80
2021/11/03 02:07:09;;;;;;;;;;;22.00;42.40;;;;;;704509;28;798;-80
2021/11/03 02:07:30;;;;;;;;;;;22.00;42.60;;;;;;704629;28;881;-80
2021/11/03 02:07:51;;;;;;;;;;;22.00;42.60;;;;;;704604;28;937;-80
2021/11/03 02:08:12;;;;;;;;;;;22.10;42.40;;;;;;704661;28;877;-81
2021/11/03 02:08:34;;;;;;;;;;;22.10;42.30;;;;;;704724;28;821;-81
2021/11/03 02:08:55;;;;;;;;;;;22.10;42.50;;;;;;704719;28;837;-80
2021/11/03 02:09:15;;;;;;;;;;;22.10;42.70;;;;;;704545;28;849;-81
2021/11/03 02:09:36;;;;;;;;;;;22.10;42.40;;;;;;704764;28;868;-81
2021/11/03 02:09:56;;;;;;;;;;;22.10;42.30;;;;;;704605;28;1106;-81
2021/11/03 02:10:18;;;;;;;;;;;22.10;42.30;;;;;;704667;28;888;-81
2021/11/03 02:10:39;;;;;;;;;;;22.10;42.30;;;;;;704689;28;513;-80